East Corinth, Vermont
Current Conditions -  °F | °C
As of 12:21 PM on Tuesday 21 Oct 2014 (Local Time) from KMPV Reporting Station
Light Rain Light Rain  
Wind Chill: 44°   Ceiling: 300
Heat Index: 44°   Visibility: 3mi
Dew Point: 43°   Wind: 3mph
Humidity: 96%   Direction: 20°NNE
Pressure: 30.03"   Gusts: NA
Location:  44.06°N, 72.22°W
Report Text: KMPV 211621Z AUTO 02003KT 3SM -RA BR BKN003 OVC031 07/06 A3003 RMK AO2 P0002 T00670061
Loading
Personal Weather Stations






























Interactive Weather Map
Tropical Storm Tracking
New forecast layout! Learn more

10-Day Weather Forecast

Advertisements
Track Severe Weather on mobile